Ana Sayfa
METAR-TAF:

METAR-TAF

Havaalanları :

Harlingen, Teksas, Amerika Birleşik Devletleri

Enlem: 26-13-47N, Boylam: 097-39-19W, yükseklik: 10 m

Güncel hava durumu gözlemi

Rapor saat 06:52 UTC de 48 dakika önce yapıldı.
Rüzgar güneydan 5 kt
Sıcaklık 9°C
Nem 81%
Basınç 1028 hPa
Görüş mesafesi: 16.1 km
Açık gökyüzü

METAR: KHRL 290652Z AUTO 19005KT 10SM CLR 09/06 A3036 RMK AO2 SLP281 T00890056

Saat: 01:40 (07:40 UTC)

Tahmin

Rapor saat 05:20 UTC de 2 saat ve 20 dakika önce yapıldı.
Ayın 29'si saat 06 UTC'den ayın 01'si saat 06 UTC'ye kadar geçerli Tahmin
Rüzgar güney/güneydoğudan 5 kt
Görüş mesafesi: 10 km
25000 ft yükseklikte az bulutlu
Ayın 29'si saat 1700 UTC'den
Rüzgar güney/güneydoğudan 15 kt ve 20 kt'a kadar ani rüzgarlar
Görüş mesafesi: 10 km
25000 ft yükseklikte parçalı bulutlu

TAF: KHRL 290520Z 2906/0106 15005KT P6SM FEW250 FM291700 16015G20KT P6SM SCT250

4.000'den fazla havaalanı için hava durumu gözlemleri ve tahminleri (METAR ve TAF raporları).

Kullanılabilir istasyonlar harita üzerinde sarı ve kırmızı noktalarla gösterilir.

İstasyonun adını görmek için fareyi noktanın üzerinde gezdirin.

Sonrasında hava gözlem ve tahminlerini görmek için tıklayın.

Haritayı değiştirmek için: yaklaştırmak için siyah artı işaretli yeşil düğmeye ve uzaklaştırmak için de eksi işaretli düğmeye hızla tıklayın; bitişik haritalar için yeşil okları kullanın.


METAR-TAF: